Grinnell, KS

10:47 AM CDT on May 05, 2015 (GMT -0500)
Angelus, KS | | Change Station
CLOSE
Current Station
Personal Weather Station
Location: Grinnell, KS
Elevation: 2969 ft
Nearby Weather Stations

Elev 2969 ft 39.21 °N, 100.70 °W | Updated 3 seconds ago

Overcast
Overcast
60.1 °F
Feels Like 60.1 °F
N
10.7
Wind Variable Wind from SE
Gusts 15.9 mph

Today
High -- | Low -- °F
--% Chance of Precip.
Yesterday
High -- | Low -- °F
Precip. -- in
6:39 AM 8:39 PM
Full, 98% visible
Pressure 29.99 in
Visibility 10.0 miles
Clouds Overcast 500 ft
Dew Point 60 °F
Humidity 99%
Rainfall 0.11 in
Snow Depth Not available.
UV 2 out of 12
Pollen 1.30 out of 12
Air Quality Not available.
Flu Activity Sporadic
METAR KCBK 051515Z AUTO 12010KT 10SM OVC005 15/15 A2999 RMK AO2

More Conditions Fewer Conditions

Pressure 29.99 in
Visibility 10.0 miles
Clouds Overcast 500 ft
Dew Point 60 °F
Humidity 99%
Rainfall 0.11 in
Snow Depth Not available.
UV 2 out of 12
Pollen 1.30 out of 12
Air Quality Not available.
Flu Activity Sporadic
METAR KCBK 051515Z AUTO 12010KT 10SM OVC005 15/15 A2999 RMK AO2

More Conditions Fewer Conditions

10-Day Weather Forecast

Almanac

Astronomy

May. 05, 2015 Rise Set
Actual Time
Civil Twilight
Nautical Twilight
Astronomical Twilight
Moon
Length of Visible Light
Length of Day
Tomorrow will be .
, % of the Moon is Illuminated

Today's Extremes

State Highs State Lows

Community

WunderPhotos

Upload Photos

1,818,922 photos uploaded!

WunderBlogs® & News

Nearby

Air Quality

  Air Quality AQ Index Pollutant
Not available.

Snow Depth

Station Depth Elevation

Earthquake Activity

City Distance Mag. Time & Date
Minimum magnitude displayed is 2.5.

Coastal Water Temperatures

Place Temperature

Stations

Nearby Weather Stations

Station Location Temp. Windchill Dew Point Humidity Wind Precip. Elev Updated Type